This is the latest recevied weather packets stored in our database for station/object EA5CBT-13. If no packets are shown the sender has not sent any weather packets the latest 10 day(s).
| Time | Temp. | Humidity | Pressure | Rain* | Wind** | Luminosity | Snow |
|---|---|---|---|---|---|---|---|
| 1778206539 | 12.78° C | 91% | 1009.6 hPa | 0 mm | - | - | - |
| 1778204170 | 13.33° C | 92% | 1009.8 hPa | 0 mm | - | - | - |
| 1778201739 | 13.33° C | 93% | 1010.3 hPa | 0 mm | - | - | - |
| 1778200525 | 13.33° C | 93% | 1010.6 hPa | 0 mm | - | - | - |
| 1778199916 | 13.33° C | 93% | 1010.9 hPa | 0 mm | - | - | - |
| 1778197547 | 13.33° C | 93% | 1011 hPa | 0 mm | - | - | - |
| 1778191532 | 13.89° C | 92% | 1011.1 hPa | 0 mm | - | - | - |
| 1778187352 | 14.44° C | 91% | 1010.7 hPa | 0 mm | - | - | - |
| 1778185570 | 14.44° C | 91% | 1010.6 hPa | 0 mm | - | - | - |
| 1778182550 | 15° C | 91% | 1010.1 hPa | 0 mm | - | - | - |
| 1778181374 | 15° C | 90% | 1009.6 hPa | 0 mm | - | - | - |
| 1778179549 | 15.56° C | 92% | 1009.2 hPa | 0 mm | - | - | - |
| 1778178334 | 16.11° C | 92% | 1008.6 hPa | 0.25 mm | - | - | - |
| 1778176571 | 16.67° C | 91% | 1008.4 hPa | 0.25 mm | - | - | - |
| 1778175963 | 16.67° C | 91% | 1008.5 hPa | 1.02 mm | - | - | - |
| 1778175355 | 16.67° C | 90% | 1008.6 hPa | 1.27 mm | - | - | - |
| 1778168729 | 18.89° C | 77% | 1007.7 hPa | 0 mm | - | - | - |
| 1778163940 | 17.22° C | 84% | 1007.9 hPa | 0.25 mm | - | - | - |
| 1778159732 | 15° C | 94% | 1008.8 hPa | 3.3 mm | - | - | - |
| 1778151367 | 17.22° C | 91% | 1008.9 hPa | 0.51 mm | - | - | - |
| 1778144173 | 16.67° C | 91% | 1009.2 hPa | 1.78 mm | - | - | - |
| 1778136941 | 17.78° C | 80% | 1008.5 hPa | 0 mm | - | - | - |
| 1778135747 | 17.78° C | 75% | 1008.2 hPa | 0 mm | - | - | - |
| 1778135118 | 17.78° C | 75% | 1008.2 hPa | 0 mm | - | - | - |
| 1778132748 | 17.22° C | 80% | 1008.3 hPa | 0 mm | - | - | - |
* Rain latest hour (hover to see other rain measurements)
** Current wind speed in m/s (hover to see current wind gust speed)